createdAt,value
2022-08-03T00:00:43.221Z,10.23
2022-08-03T00:03:12.426Z,8.65
2022-08-03T00:06:04.020Z,5.07
2022-08-03T00:08:32.029Z,8.38
2022-08-03T00:11:01.104Z,10.37
2022-08-03T00:13:30.298Z,8.68
2022-08-03T00:15:59.376Z,6.15
2022-08-03T00:18:28.485Z,7.93
2022-08-03T00:20:57.644Z,7.63
2022-08-03T00:23:29.409Z,6.03
2022-08-03T00:26:17.045Z,6.55
2022-08-03T00:28:46.145Z,9.93
2022-08-03T00:31:15.300Z,7.20
2022-08-03T00:33:59.150Z,7.03
2022-08-03T00:36:29.584Z,7.82
2022-08-03T00:38:58.700Z,5.82
2022-08-03T00:41:29.270Z,10.27
2022-08-03T00:43:58.364Z,8.57
2022-08-03T00:46:27.377Z,6.78
2022-08-03T00:48:56.635Z,7.32
2022-08-03T00:51:26.501Z,8.05
2022-08-03T00:53:55.613Z,8.75
2022-08-03T00:56:24.695Z,7.82
2022-08-03T00:58:59.513Z,9.48
2022-08-03T01:01:32.330Z,6.50
2022-08-03T01:04:01.769Z,10.57
2022-08-03T01:06:41.368Z,6.10
2022-08-03T01:09:16.803Z,5.07
2022-08-03T01:12:00.723Z,4.28
2022-08-03T01:14:39.575Z,4.97
2022-08-03T01:17:15.993Z,6.00
2022-08-03T01:19:51.319Z,4.13
2022-08-03T01:22:43.014Z,6.40
2022-08-03T01:25:21.022Z,7.63
2022-08-03T01:27:59.273Z,5.55
2022-08-03T01:30:32.804Z,5.15
2022-08-03T01:33:05.152Z,5.43
2022-08-03T01:35:40.242Z,4.05
2022-08-03T01:38:16.541Z,5.63
2022-08-03T01:40:47.662Z,4.25
2022-08-03T01:44:27.242Z,5.70
2022-08-03T01:46:14.216Z,4.63
2022-08-03T01:48:46.116Z,3.58
2022-08-03T01:51:18.168Z,5.70
2022-08-03T01:53:50.224Z,6.93
2022-08-03T01:56:21.448Z,6.05
2022-08-03T01:58:52.383Z,7.22
2022-08-03T02:01:25.297Z,5.90
2022-08-03T02:04:15.943Z,4.22
2022-08-03T02:07:02.304Z,4.32
2022-08-03T02:09:33.224Z,5.45
2022-08-03T02:12:02.924Z,7.10
2022-08-03T02:14:32.971Z,5.70
2022-08-03T02:17:04.199Z,6.82
2022-08-03T02:19:35.814Z,5.30
2022-08-03T02:22:09.122Z,3.88
2022-08-03T02:24:38.605Z,7.30
2022-08-03T02:27:14.522Z,4.72
2022-08-03T02:29:47.008Z,5.90
2022-08-03T02:32:21.968Z,6.43
2022-08-03T02:34:54.699Z,5.97
2022-08-03T02:37:30.169Z,5.72
2022-08-03T02:40:03.316Z,4.22
2022-08-03T02:42:35.573Z,4.72
2022-08-03T02:45:07.837Z,4.00
2022-08-03T02:47:53.787Z,3.17
2022-08-03T02:50:26.377Z,5.18
2022-08-03T02:52:57.785Z,4.65
2022-08-03T02:58:01.649Z,4.75
2022-08-03T03:00:32.269Z,5.70
2022-08-03T03:03:06.314Z,9.73
2022-08-03T03:05:54.984Z,5.03
2022-08-03T03:08:28.838Z,5.07
2022-08-03T03:11:00.942Z,9.23
2022-08-03T03:13:31.463Z,5.25
2022-08-03T03:16:03.791Z,5.33
2022-08-03T03:18:35.405Z,4.47
2022-08-03T03:21:06.557Z,6.22
2022-08-03T03:23:38.454Z,5.55
2022-08-03T03:26:08.199Z,5.80
2022-08-03T03:28:38.204Z,7.30
2022-08-03T03:31:08.035Z,6.45
2022-08-03T03:33:39.424Z,7.53
2022-08-03T03:38:38.431Z,6.85
2022-08-03T03:41:07.632Z,4.50
2022-08-03T03:43:36.872Z,7.57
2022-08-03T03:46:06.724Z,4.03
2022-08-03T03:48:37.369Z,6.60
2022-08-03T03:51:06.843Z,5.88
2022-08-03T03:53:35.898Z,4.07
2022-08-03T03:56:05.442Z,6.35
2022-08-03T03:58:34.680Z,5.57
2022-08-03T04:01:03.872Z,6.55
2022-08-03T04:03:33.014Z,8.13
2022-08-03T04:06:21.216Z,5.65
2022-08-03T04:09:07.900Z,6.35
2022-08-03T04:11:40.712Z,7.90
2022-08-03T04:14:13.249Z,6.15
2022-08-03T04:16:46.411Z,3.70
2022-08-03T04:19:23.151Z,8.40
2022-08-03T04:21:59.129Z,4.07
2022-08-03T04:24:34.114Z,6.63
2022-08-03T04:27:07.878Z,5.18
2022-08-03T04:29:46.384Z,5.90
2022-08-03T04:32:19.018Z,5.35
2022-08-03T04:34:48.722Z,4.28
2022-08-03T04:37:27.753Z,4.78
2022-08-03T04:39:59.761Z,4.85
2022-08-03T04:42:29.771Z,8.52
2022-08-03T04:45:01.686Z,5.35
2022-08-03T04:47:34.437Z,6.03
2022-08-03T04:50:07.149Z,7.78
2022-08-03T04:52:41.131Z,8.57
2022-08-03T04:55:11.046Z,5.22
2022-08-03T04:57:40.643Z,6.15
2022-08-03T05:00:10.977Z,6.35
2022-08-03T05:02:40.075Z,3.38
2022-08-03T05:05:11.128Z,6.03
2022-08-03T05:07:41.566Z,6.80
2022-08-03T05:10:16.499Z,7.07
2022-08-03T05:12:47.207Z,7.25
2022-08-03T05:15:16.409Z,7.50
2022-08-03T05:17:45.631Z,9.20
2022-08-03T05:20:18.925Z,6.55
2022-08-03T05:22:49.641Z,4.90
2022-08-03T05:25:20.555Z,4.37
2022-08-03T05:27:51.388Z,5.32
2022-08-03T05:30:31.048Z,6.32
2022-08-03T05:33:04.733Z,4.85
2022-08-03T05:36:02.172Z,6.40
2022-08-03T05:38:34.367Z,6.13
2022-08-03T05:41:21.089Z,4.63
2022-08-03T05:43:52.649Z,5.00
2022-08-03T05:46:21.891Z,3.58
2022-08-03T05:48:50.959Z,5.22
2022-08-03T05:51:20.445Z,5.60
2022-08-03T05:53:50.892Z,5.70
2022-08-03T05:56:24.290Z,7.60
2022-08-03T05:58:53.793Z,9.10
2022-08-03T06:01:23.665Z,8.10
2022-08-03T06:03:53.802Z,8.98
2022-08-03T06:06:23.525Z,7.10
2022-08-03T06:08:54.560Z,6.72
2022-08-03T06:11:23.637Z,5.60
2022-08-03T06:13:52.810Z,6.65
2022-08-03T06:16:21.885Z,8.82
2022-08-03T06:18:50.974Z,10.05
2022-08-03T06:21:20.063Z,7.80
2022-08-03T06:23:54.553Z,7.45
2022-08-03T06:26:29.648Z,10.48
2022-08-03T06:28:58.666Z,8.95
2022-08-03T06:31:32.963Z,6.43
2022-08-03T06:34:32.439Z,7.40
2022-08-03T06:36:58.574Z,8.10
2022-08-03T06:39:31.214Z,5.18
2022-08-03T06:42:01.629Z,7.97
2022-08-03T06:44:30.638Z,7.17
2022-08-03T06:46:59.856Z,9.73
2022-08-03T06:49:29.317Z,12.02
2022-08-03T06:52:04.327Z,8.00
2022-08-03T06:54:37.169Z,12.13
2022-08-03T06:57:09.769Z,12.23
2022-08-03T07:00:09.958Z,7.20
2022-08-03T07:02:29.109Z,11.52
2022-08-03T07:04:58.773Z,11.15
2022-08-03T07:07:27.866Z,6.93
2022-08-03T07:09:58.343Z,13.70
2022-08-03T07:12:30.404Z,10.40
2022-08-03T07:15:02.838Z,9.38
2022-08-03T07:17:34.809Z,8.48
2022-08-03T07:20:06.634Z,6.53
2022-08-03T07:22:36.607Z,7.38
2022-08-03T07:25:06.565Z,13.60
2022-08-03T07:27:38.358Z,8.70
2022-08-03T07:30:09.575Z,6.95
2022-08-03T07:32:50.171Z,14.50
2022-08-03T07:35:24.602Z,9.43
2022-08-03T07:37:55.246Z,8.93
2022-08-03T07:40:25.107Z,6.95
2022-08-03T07:43:03.469Z,6.25
2022-08-03T07:45:33.330Z,6.90
2022-08-03T07:48:02.462Z,7.15
2022-08-03T07:50:31.653Z,10.02
2022-08-03T07:53:00.744Z,7.85
2022-08-03T07:55:30.444Z,8.73
2022-08-03T07:58:09.877Z,7.95
2022-08-03T08:00:40.798Z,7.15
2022-08-03T08:03:10.320Z,9.27
2022-08-03T08:05:44.180Z,4.70
2022-08-03T08:08:15.746Z,8.95
2022-08-03T08:10:57.974Z,7.55
2022-08-03T08:13:29.786Z,7.45
2022-08-03T08:15:59.130Z,9.43
2022-08-03T08:18:29.632Z,5.78
2022-08-03T08:20:58.703Z,6.90
2022-08-03T08:23:46.216Z,4.75
2022-08-03T08:26:24.841Z,5.63
2022-08-03T08:28:55.308Z,3.40
2022-08-03T08:31:24.369Z,4.97
2022-08-03T08:34:08.740Z,5.43
2022-08-03T08:36:37.899Z,5.53
2022-08-03T08:39:08.571Z,6.03
2022-08-03T08:41:46.401Z,4.90
2022-08-03T08:44:17.785Z,6.80
2022-08-03T08:46:47.990Z,5.33
2022-08-03T08:49:19.768Z,7.72
2022-08-03T08:51:59.413Z,5.97
2022-08-03T08:57:02.665Z,4.63
2022-08-03T08:59:49.117Z,6.10
2022-08-03T09:02:19.911Z,4.80
2022-08-03T09:04:49.739Z,4.93
2022-08-03T09:07:20.627Z,4.75
2022-08-03T09:10:10.188Z,4.22
2022-08-03T09:12:42.567Z,2.70
2022-08-03T09:15:21.559Z,4.85
2022-08-03T09:17:51.586Z,4.15
2022-08-03T09:20:22.376Z,3.45
2022-08-03T09:22:59.810Z,6.45
2022-08-03T09:25:33.630Z,3.20
2022-08-03T09:28:09.136Z,2.10
2022-08-03T09:30:41.277Z,5.93
2022-08-03T09:33:11.951Z,5.72
2022-08-03T09:35:53.516Z,4.78
2022-08-03T09:38:27.542Z,4.97
2022-08-03T09:41:00.445Z,4.18
2022-08-03T09:43:46.781Z,2.90
2022-08-03T09:46:17.189Z,2.63
2022-08-03T09:48:46.599Z,4.50
2022-08-03T09:51:33.134Z,4.97
2022-08-03T09:54:16.105Z,6.55
2022-08-03T09:56:48.074Z,3.83
2022-08-03T09:59:26.287Z,7.07
2022-08-03T10:01:57.705Z,5.22
2022-08-03T10:04:27.295Z,4.07
2022-08-03T10:07:09.959Z,4.10
2022-08-03T10:09:39.642Z,3.10
2022-08-03T10:12:10.013Z,6.13
2022-08-03T10:14:42.076Z,10.50
2022-08-03T10:17:12.808Z,5.65
2022-08-03T10:19:42.291Z,7.13
2022-08-03T10:22:15.313Z,6.32
2022-08-03T10:24:52.321Z,6.15
2022-08-03T10:27:23.412Z,11.02
2022-08-03T10:29:56.302Z,4.95
2022-08-03T10:32:31.698Z,2.95
2022-08-03T10:35:12.387Z,4.07
2022-08-03T10:37:56.676Z,6.63
2022-08-03T10:43:22.152Z,4.47
2022-08-03T10:45:52.333Z,3.97
2022-08-03T10:48:23.619Z,6.63
2022-08-03T10:53:36.842Z,5.28
2022-08-03T10:56:35.661Z,3.83
2022-08-03T10:59:28.069Z,3.90
2022-08-03T11:02:00.835Z,3.85
2022-08-03T11:04:31.744Z,2.50
2022-08-03T11:07:23.024Z,4.10
2022-08-03T11:12:30.780Z,2.78
2022-08-03T11:15:05.079Z,4.57
2022-08-03T11:17:46.903Z,3.30
2022-08-03T11:20:50.280Z,1.42
2022-08-03T11:24:02.632Z,3.17
2022-08-03T11:26:29.736Z,1.50
2022-08-03T11:29:28.604Z,1.75
2022-08-03T11:31:57.783Z,1.58
2022-08-03T11:34:26.923Z,2.65
2022-08-03T11:37:25.207Z,2.55
2022-08-03T11:39:57.342Z,1.40
2022-08-03T11:42:45.223Z,1.20
2022-08-03T11:45:15.278Z,1.73
2022-08-03T11:47:51.008Z,2.33
2022-08-03T11:50:21.614Z,2.92
2022-08-03T11:52:52.288Z,2.78
2022-08-03T11:55:22.363Z,3.63
2022-08-03T11:59:16.954Z,1.90
2022-08-03T12:00:40.901Z,1.92
2022-08-03T12:03:11.996Z,2.60
2022-08-03T12:05:51.076Z,1.73
2022-08-03T12:08:35.072Z,1.35
2022-08-03T12:11:06.856Z,1.30
2022-08-03T12:14:26.926Z,3.15
2022-08-03T12:16:31.617Z,1.48
2022-08-03T12:19:01.689Z,2.55
2022-08-03T12:21:31.143Z,4.18
2022-08-03T12:24:03.106Z,2.97
2022-08-03T12:26:44.013Z,2.05
2022-08-03T12:29:25.870Z,1.45
2022-08-03T12:34:25.468Z,1.42
2022-08-03T12:37:01.069Z,1.42
2022-08-03T12:39:32.384Z,1.63
2022-08-03T12:42:01.540Z,1.20
2022-08-03T12:44:32.399Z,1.88
2022-08-03T12:47:02.352Z,1.15
2022-08-03T12:49:46.283Z,4.22
2022-08-03T12:52:16.281Z,0.75
2022-08-03T12:54:56.548Z,0.77
2022-08-03T12:57:25.975Z,2.72
2022-08-03T12:59:56.064Z,2.10
2022-08-03T13:02:27.881Z,1.02
2022-08-03T13:07:25.818Z,2.17
2022-08-03T13:09:57.544Z,1.55
2022-08-03T13:12:28.754Z,2.88
2022-08-03T13:14:59.788Z,0.45
2022-08-03T13:17:29.393Z,1.10
2022-08-03T13:19:58.495Z,1.10
2022-08-03T13:22:29.482Z,2.67
2022-08-03T13:25:01.347Z,0.30
2022-08-03T13:28:04.149Z,0.43
2022-08-03T13:30:30.095Z,1.02
2022-08-03T13:33:00.744Z,1.17
2022-08-03T13:35:29.981Z,0.50
2022-08-03T13:37:59.191Z,0.55
2022-08-03T13:40:34.483Z,0.50
2022-08-03T13:43:05.874Z,1.25
2022-08-03T13:45:34.901Z,2.50
2022-08-03T13:48:04.046Z,1.45
2022-08-03T13:50:33.241Z,5.97
2022-08-03T13:53:02.329Z,3.22
2022-08-03T13:55:33.677Z,2.85
2022-08-03T14:00:36.780Z,2.72
2022-08-03T14:03:13.141Z,4.00
2022-08-03T14:05:43.639Z,0.90
2022-08-03T14:08:34.339Z,1.98
2022-08-03T14:11:06.254Z,1.42
2022-08-03T14:13:35.406Z,0.90
2022-08-03T14:16:05.663Z,4.88
2022-08-03T14:18:50.010Z,3.00
2022-08-03T14:21:24.154Z,2.40
2022-08-03T14:23:53.200Z,1.25
2022-08-03T14:26:25.149Z,1.17
2022-08-03T14:28:54.358Z,1.73
2022-08-03T14:32:10.001Z,2.95
2022-08-03T14:34:14.052Z,4.97
2022-08-03T14:36:43.499Z,1.52
2022-08-03T14:39:12.679Z,0.98
2022-08-03T14:41:43.200Z,0.82
2022-08-03T14:44:12.267Z,1.27
2022-08-03T14:46:41.250Z,1.80
2022-08-03T14:50:34.186Z,3.83
2022-08-03T14:51:59.360Z,3.15
2022-08-03T14:54:31.110Z,0.60
2022-08-03T14:57:01.633Z,0.95
2022-08-03T14:59:55.694Z,1.90
2022-08-03T15:02:23.930Z,2.58
2022-08-03T15:04:53.830Z,1.73
2022-08-03T15:07:23.278Z,5.35
2022-08-03T15:09:52.478Z,0.80
2022-08-03T15:12:22.970Z,1.35
2022-08-03T15:14:52.048Z,2.90
2022-08-03T15:17:21.302Z,2.47
2022-08-03T15:20:01.682Z,2.78
2022-08-03T15:22:41.224Z,1.83
2022-08-03T15:26:32.315Z,1.30
2022-08-03T15:28:04.740Z,1.90
2022-08-03T15:30:37.039Z,3.00
2022-08-03T15:33:06.844Z,2.25
2022-08-03T15:35:35.905Z,1.10
2022-08-03T15:38:09.281Z,2.10
2022-08-03T15:40:40.047Z,0.95
2022-08-03T15:43:10.604Z,1.40
2022-08-03T15:45:42.048Z,0.85
2022-08-03T15:48:11.310Z,1.80
2022-08-03T15:50:40.639Z,1.73
2022-08-03T15:53:09.749Z,1.27
2022-08-03T15:55:38.801Z,1.95
2022-08-03T15:59:04.662Z,0.85
2022-08-03T16:00:58.675Z,1.33
2022-08-03T16:03:28.444Z,2.45
2022-08-03T16:05:57.885Z,2.17
2022-08-03T16:08:26.895Z,3.17
2022-08-03T16:10:56.023Z,3.38
2022-08-03T16:14:12.414Z,2.97
2022-08-03T16:16:16.360Z,1.10
2022-08-03T16:18:45.563Z,4.43
2022-08-03T16:21:19.497Z,3.10
2022-08-03T16:23:50.993Z,2.00
2022-08-03T16:26:20.261Z,2.75
2022-08-03T16:28:50.708Z,1.73
2022-08-03T16:31:20.353Z,1.87
2022-08-03T16:33:49.480Z,1.52
2022-08-03T16:36:18.484Z,1.85
2022-08-03T16:38:47.600Z,2.50
2022-08-03T16:41:16.853Z,3.70
2022-08-03T16:43:45.894Z,1.98
2022-08-03T16:46:16.455Z,3.97
2022-08-03T16:48:45.553Z,1.27
2022-08-03T16:51:14.787Z,2.10
2022-08-03T16:54:05.608Z,1.95
2022-08-03T16:56:33.292Z,2.05
2022-08-03T16:59:06.504Z,1.58
2022-08-03T17:01:40.274Z,1.98
2022-08-03T17:04:11.113Z,0.90
2022-08-03T17:09:39.486Z,4.13
2022-08-03T17:12:10.929Z,1.92
2022-08-03T17:15:15.082Z,2.55
2022-08-03T17:18:25.740Z,2.83
2022-08-03T17:21:16.993Z,1.63
2022-08-03T17:24:12.037Z,2.55
2022-08-03T17:26:49.888Z,3.63
2022-08-03T17:29:37.473Z,2.80
2022-08-03T17:32:21.571Z,1.60
2022-08-03T17:34:53.337Z,1.35
2022-08-03T17:37:50.619Z,0.95
2022-08-03T17:40:17.420Z,1.10
2022-08-03T17:42:50.845Z,1.98
2022-08-03T17:45:21.024Z,1.02
2022-08-03T17:47:57.083Z,2.58
2022-08-03T17:50:40.494Z,2.35
2022-08-03T17:53:15.596Z,1.65
2022-08-03T17:56:04.736Z,2.83
2022-08-03T17:58:55.941Z,1.55
2022-08-03T18:02:00.295Z,3.10
2022-08-03T18:04:40.590Z,4.90
2022-08-03T18:07:15.497Z,2.20
2022-08-03T18:10:03.902Z,2.42
2022-08-03T18:12:56.569Z,4.63
2022-08-03T18:15:38.627Z,3.85
2022-08-03T18:18:14.243Z,2.28
2022-08-03T18:20:45.660Z,3.25
2022-08-03T18:23:36.372Z,3.50
2022-08-03T18:26:11.977Z,1.65
2022-08-03T18:32:03.134Z,2.42
2022-08-03T18:34:33.435Z,2.40
2022-08-03T18:37:04.322Z,2.28
2022-08-03T18:39:50.115Z,3.63
2022-08-03T18:42:25.754Z,1.23
2022-08-03T18:44:57.131Z,1.92
2022-08-03T18:47:51.900Z,0.98
2022-08-03T18:50:30.574Z,2.00
2022-08-03T18:53:15.697Z,2.05
2022-08-03T18:56:01.925Z,1.48
2022-08-03T18:58:39.025Z,1.52
2022-08-03T19:01:58.400Z,3.75
2022-08-03T19:04:10.431Z,3.08
2022-08-03T19:06:43.613Z,2.55
2022-08-03T19:09:19.410Z,1.70
2022-08-03T19:12:14.356Z,2.08
2022-08-03T19:14:48.488Z,2.40
2022-08-03T19:17:21.235Z,1.27
2022-08-03T19:19:52.748Z,2.80
2022-08-03T19:22:23.289Z,2.45
2022-08-03T19:24:55.280Z,3.15
2022-08-03T19:27:27.666Z,3.35
2022-08-03T19:30:02.056Z,2.97
2022-08-03T19:32:34.962Z,1.98
2022-08-03T19:35:10.091Z,2.20
2022-08-03T19:37:46.363Z,2.05
2022-08-03T19:40:15.464Z,3.72
2022-08-03T19:42:55.995Z,3.70
2022-08-03T19:46:04.786Z,5.70
2022-08-03T19:48:30.097Z,3.63
2022-08-03T19:50:59.860Z,3.83
2022-08-03T19:53:35.224Z,4.75
2022-08-03T19:56:07.262Z,3.50
2022-08-03T20:01:21.345Z,4.37
2022-08-03T20:03:51.911Z,3.13
2022-08-03T20:06:24.161Z,3.53
2022-08-03T20:08:55.329Z,4.18
2022-08-03T20:11:28.653Z,3.38
2022-08-03T20:14:00.475Z,1.80
2022-08-03T20:16:29.597Z,3.15
2022-08-03T20:18:58.703Z,2.45
2022-08-03T20:21:29.800Z,1.70
2022-08-03T20:24:24.667Z,1.17
2022-08-03T20:26:55.581Z,4.68
2022-08-03T20:30:05.147Z,2.22
2022-08-03T20:32:24.706Z,1.77
2022-08-03T20:34:54.117Z,2.55
2022-08-03T20:37:26.841Z,2.75
2022-08-03T20:39:59.878Z,1.65
2022-08-03T20:42:29.315Z,3.88
2022-08-03T20:45:05.255Z,4.13
2022-08-03T20:47:50.711Z,2.15
2022-08-03T20:50:22.183Z,1.88
2022-08-03T20:52:51.686Z,1.80
2022-08-03T20:55:47.741Z,1.90
2022-08-03T20:58:10.681Z,1.90
2022-08-03T21:00:42.837Z,3.45
2022-08-03T21:03:12.345Z,1.38
2022-08-03T21:05:51.181Z,2.03
2022-08-03T21:08:22.863Z,1.63
2022-08-03T21:10:54.910Z,3.35
2022-08-03T21:13:28.417Z,0.88
2022-08-03T21:16:12.921Z,3.28
2022-08-03T21:18:46.934Z,1.92
2022-08-03T21:21:18.889Z,3.88
2022-08-03T21:23:52.723Z,2.20
2022-08-03T21:26:25.165Z,1.77
2022-08-03T21:28:56.790Z,2.38
2022-08-03T21:31:27.828Z,3.63
2022-08-03T21:33:58.515Z,2.58
2022-08-03T21:36:28.823Z,3.10
2022-08-03T21:38:58.307Z,2.85
2022-08-03T21:41:29.014Z,1.90
2022-08-03T21:43:58.156Z,4.72
2022-08-03T21:46:34.330Z,2.13
2022-08-03T21:50:07.621Z,1.45
2022-08-03T21:51:58.161Z,1.67
2022-08-03T21:54:35.081Z,3.55
2022-08-03T21:57:07.095Z,2.80
2022-08-03T21:59:41.149Z,2.45
2022-08-03T22:02:23.983Z,1.73
2022-08-03T22:04:56.413Z,3.92
2022-08-03T22:07:27.007Z,3.72
2022-08-03T22:09:57.268Z,2.97
2022-08-03T22:12:28.312Z,2.55
2022-08-03T22:15:01.054Z,2.55
2022-08-03T22:17:56.030Z,3.40
2022-08-03T22:20:22.741Z,2.67
2022-08-03T22:22:56.565Z,3.22
2022-08-03T22:25:30.026Z,4.72
2022-08-03T22:28:00.981Z,2.03
2022-08-03T22:30:31.721Z,2.53
2022-08-03T22:33:03.986Z,1.85
2022-08-03T22:35:44.221Z,1.90
2022-08-03T22:38:17.431Z,3.45
2022-08-03T22:40:48.920Z,2.85
2022-08-03T22:43:18.477Z,3.63
2022-08-03T22:46:08.999Z,3.60
2022-08-03T22:48:41.156Z,5.40
2022-08-03T22:51:11.381Z,3.03
2022-08-03T22:53:41.500Z,3.45
2022-08-03T22:56:11.044Z,3.80
2022-08-03T22:58:40.148Z,3.63
2022-08-03T23:01:11.614Z,5.60
2022-08-03T23:04:00.686Z,1.67
2022-08-03T23:06:36.705Z,9.52
2022-08-03T23:09:10.306Z,3.97
2022-08-03T23:11:45.253Z,4.10
2022-08-03T23:14:16.734Z,9.40
2022-08-03T23:16:47.968Z,7.15
2022-08-03T23:19:25.929Z,6.85
2022-08-03T23:22:02.327Z,10.27
2022-08-03T23:24:37.009Z,3.80
2022-08-03T23:27:07.362Z,3.20
2022-08-03T23:29:37.480Z,4.55
2022-08-03T23:32:08.153Z,3.13
2022-08-03T23:34:58.151Z,4.50
2022-08-03T23:37:27.730Z,6.25
2022-08-03T23:39:58.932Z,5.82
2022-08-03T23:42:28.502Z,4.72
2022-08-03T23:45:04.741Z,6.07
2022-08-03T23:47:46.922Z,6.20
2022-08-03T23:50:18.451Z,6.05
2022-08-03T23:52:59.031Z,5.10
2022-08-03T23:55:41.592Z,4.80
2022-08-03T23:58:23.843Z,5.65
